createdAt,value
2023-01-20T00:01:20.044Z,3.70
2023-01-20T00:03:48.171Z,3.70
2023-01-20T00:06:15.544Z,3.70
2023-01-20T00:08:42.967Z,3.70
2023-01-20T00:11:12.538Z,3.70
2023-01-20T00:13:40.260Z,3.70
2023-01-20T00:16:09.982Z,3.80
2023-01-20T00:18:38.595Z,3.80
2023-01-20T00:21:08.878Z,3.70
2023-01-20T00:23:36.124Z,3.70
2023-01-20T00:26:08.724Z,3.70
2023-01-20T00:28:36.821Z,3.70
2023-01-20T00:31:31.791Z,3.70
2023-01-20T00:34:00.506Z,3.70
2023-01-20T00:36:31.353Z,3.70
2023-01-20T00:38:59.201Z,3.60
2023-01-20T00:41:26.418Z,3.60
2023-01-20T00:43:53.676Z,3.60
2023-01-20T00:46:23.149Z,3.60
2023-01-20T00:48:50.469Z,3.60
2023-01-20T00:51:17.841Z,3.60
2023-01-20T00:53:45.029Z,3.60
2023-01-20T00:56:12.146Z,3.60
2023-01-20T00:58:39.268Z,3.70
2023-01-20T01:01:06.537Z,3.60
2023-01-20T01:03:33.856Z,3.60
2023-01-20T01:06:13.308Z,3.60
2023-01-20T01:08:41.973Z,3.50
2023-01-20T01:11:10.301Z,3.50
2023-01-20T01:13:38.744Z,3.60
2023-01-20T01:16:13.763Z,3.60
2023-01-20T01:18:41.657Z,3.60
2023-01-20T01:21:11.893Z,3.60
2023-01-20T01:23:39.049Z,3.60
2023-01-20T01:26:06.317Z,3.60
2023-01-20T01:28:33.760Z,3.60
2023-01-20T01:31:02.449Z,3.50
2023-01-20T01:33:30.463Z,3.50
2023-01-20T01:35:58.940Z,3.40
2023-01-20T01:38:26.983Z,3.40
2023-01-20T01:40:55.636Z,3.30
2023-01-20T01:43:30.763Z,3.30
2023-01-20T01:45:58.235Z,3.20
2023-01-20T01:48:45.662Z,3.20
2023-01-20T01:51:21.714Z,3.20
2023-01-20T01:53:54.200Z,3.20
2023-01-20T01:56:23.314Z,3.20
2023-01-20T01:58:56.751Z,3.10
2023-01-20T02:01:24.693Z,3.10
2023-01-20T02:04:02.704Z,3.10
2023-01-20T02:06:33.841Z,3.00
2023-01-20T02:09:03.318Z,3.00
2023-01-20T02:11:32.795Z,3.00
2023-01-20T02:14:00.050Z,3.00
2023-01-20T02:16:48.714Z,2.90
2023-01-20T02:19:37.198Z,2.90
2023-01-20T02:22:19.409Z,3.00
2023-01-20T02:25:01.691Z,3.00
2023-01-20T02:28:05.565Z,3.00
2023-01-20T02:30:58.954Z,3.00
2023-01-20T02:33:31.469Z,3.10
2023-01-20T02:36:12.350Z,3.10
2023-01-20T02:38:54.725Z,3.10
2023-01-20T02:41:47.294Z,3.10
2023-01-20T02:44:24.729Z,3.10
2023-01-20T02:47:21.943Z,3.10
2023-01-20T02:49:59.261Z,3.10
2023-01-20T02:52:41.167Z,3.10
2023-01-20T02:55:12.065Z,3.10
2023-01-20T02:57:54.178Z,3.10
2023-01-20T03:00:27.958Z,3.10
2023-01-20T03:02:58.977Z,3.10
2023-01-20T03:05:33.454Z,3.10
2023-01-20T03:08:05.955Z,3.10
2023-01-20T03:10:35.806Z,3.00
2023-01-20T03:13:33.583Z,3.10
2023-01-20T03:16:21.870Z,3.00
2023-01-20T03:18:50.111Z,3.10
2023-01-20T03:21:17.403Z,3.10
2023-01-20T03:23:47.861Z,3.00
2023-01-20T03:26:17.684Z,3.00
2023-01-20T03:28:46.692Z,3.00
2023-01-20T03:31:22.902Z,3.00
2023-01-20T03:33:53.018Z,2.90
2023-01-20T03:36:23.578Z,2.90
2023-01-20T03:38:51.663Z,2.90
2023-01-20T03:41:51.530Z,2.80
2023-01-20T03:44:30.616Z,2.80
2023-01-20T03:47:22.472Z,2.80
2023-01-20T03:50:08.499Z,2.80
2023-01-20T03:53:00.985Z,2.80
2023-01-20T03:55:46.666Z,2.90
2023-01-20T03:58:18.336Z,2.90
2023-01-20T04:00:48.867Z,2.90
2023-01-20T04:03:29.927Z,2.90
2023-01-20T04:06:00.329Z,2.90
2023-01-20T04:08:33.125Z,2.90
2023-01-20T04:11:04.033Z,2.80
2023-01-20T04:13:31.592Z,2.80
2023-01-20T04:16:00.869Z,2.80
2023-01-20T04:18:28.104Z,2.80
2023-01-20T04:21:02.074Z,2.80
2023-01-20T04:23:35.154Z,2.80
2023-01-20T04:26:02.620Z,2.80
2023-01-20T04:28:30.276Z,2.80
2023-01-20T04:30:57.573Z,2.80
2023-01-20T04:33:24.948Z,2.80
2023-01-20T04:35:52.169Z,2.90
2023-01-20T04:38:19.296Z,2.80
2023-01-20T04:40:46.875Z,2.80
2023-01-20T04:43:14.118Z,2.80
2023-01-20T04:45:42.169Z,2.70
2023-01-20T04:48:09.995Z,2.70
2023-01-20T04:50:41.298Z,2.70
2023-01-20T04:53:13.551Z,2.70
2023-01-20T04:55:40.883Z,2.70
2023-01-20T04:58:09.389Z,2.70
2023-01-20T05:00:36.675Z,2.70
2023-01-20T05:03:03.841Z,2.70
2023-01-20T05:05:31.080Z,2.70
2023-01-20T05:07:59.584Z,2.70
2023-01-20T05:10:26.915Z,2.70
2023-01-20T05:12:54.177Z,2.70
2023-01-20T05:15:21.279Z,2.70
2023-01-20T05:17:48.577Z,2.80
2023-01-20T05:20:15.944Z,2.80
2023-01-20T05:22:43.173Z,2.80
2023-01-20T05:25:10.455Z,2.80
2023-01-20T05:27:37.787Z,2.80
2023-01-20T05:30:07.110Z,2.80
2023-01-20T05:32:34.293Z,2.80
2023-01-20T05:35:01.430Z,2.80
2023-01-20T05:37:28.747Z,2.80
2023-01-20T05:39:57.292Z,2.80
2023-01-20T05:42:24.462Z,2.80
2023-01-20T05:44:51.641Z,2.80
2023-01-20T05:47:18.839Z,2.90
2023-01-20T05:49:46.014Z,2.90
2023-01-20T05:52:13.128Z,2.90
2023-01-20T05:54:40.265Z,2.90
2023-01-20T05:57:07.436Z,2.80
2023-01-20T05:59:34.541Z,2.80
2023-01-20T06:02:01.802Z,2.80
2023-01-20T06:04:29.205Z,2.80
2023-01-20T06:06:56.508Z,2.80
2023-01-20T06:09:23.830Z,2.80
2023-01-20T06:11:51.700Z,2.70
2023-01-20T06:14:18.936Z,2.80
2023-01-20T06:16:46.152Z,2.80
2023-01-20T06:19:13.379Z,2.80
2023-01-20T06:21:40.633Z,2.80
2023-01-20T06:24:07.911Z,2.80
2023-01-20T06:26:35.008Z,2.90
2023-01-20T06:29:02.234Z,2.90
2023-01-20T06:31:29.449Z,2.90
2023-01-20T06:33:56.985Z,2.90
2023-01-20T06:36:25.540Z,2.90
2023-01-20T06:38:53.318Z,2.80
2023-01-20T06:41:24.081Z,2.90
2023-01-20T06:43:51.716Z,2.80
2023-01-20T06:46:18.932Z,2.80
2023-01-20T06:48:46.404Z,2.80
2023-01-20T06:51:16.259Z,2.80
2023-01-20T06:53:43.981Z,2.70
2023-01-20T06:56:15.384Z,2.70
2023-01-20T06:58:43.084Z,2.70
2023-01-20T07:01:23.846Z,2.70
2023-01-20T07:03:51.615Z,2.70
2023-01-20T07:06:30.898Z,2.70
2023-01-20T07:08:59.109Z,2.70
2023-01-20T07:11:27.294Z,2.70
2023-01-20T07:13:54.722Z,2.70
2023-01-20T07:16:22.100Z,2.70
2023-01-20T07:18:50.939Z,2.80
2023-01-20T07:21:18.880Z,2.70
2023-01-20T07:23:47.083Z,2.80
2023-01-20T07:26:17.899Z,2.80
2023-01-20T07:28:45.273Z,2.80
2023-01-20T07:31:15.332Z,2.80
2023-01-20T07:33:43.242Z,2.80
2023-01-20T07:36:11.816Z,2.80
2023-01-20T07:38:39.638Z,2.80
2023-01-20T07:41:10.933Z,2.80
2023-01-20T07:43:38.460Z,2.80
2023-01-20T07:46:05.831Z,2.80
2023-01-20T07:48:34.248Z,2.80
2023-01-20T07:51:09.975Z,2.80
2023-01-20T07:53:43.799Z,2.80
2023-01-20T07:56:13.547Z,2.80
2023-01-20T07:58:40.822Z,2.80
2023-01-20T08:01:09.609Z,2.90
2023-01-20T08:03:36.996Z,2.90
2023-01-20T08:06:06.084Z,2.90
2023-01-20T08:08:34.700Z,2.80
2023-01-20T08:11:02.888Z,2.80
2023-01-20T08:13:30.770Z,2.80
2023-01-20T08:16:05.852Z,2.80
2023-01-20T08:18:35.355Z,2.80
2023-01-20T08:21:06.735Z,2.80
2023-01-20T08:23:34.977Z,2.80
2023-01-20T08:26:05.222Z,2.70
2023-01-20T08:28:36.972Z,2.70
2023-01-20T08:31:17.427Z,2.70
2023-01-20T08:33:45.538Z,2.60
2023-01-20T08:36:20.522Z,2.60
2023-01-20T08:38:48.868Z,2.50
2023-01-20T08:41:37.004Z,2.50
2023-01-20T08:44:06.248Z,2.50
2023-01-20T08:46:33.939Z,2.50
2023-01-20T08:49:01.550Z,2.50
2023-01-20T08:51:30.873Z,2.50
2023-01-20T08:53:58.786Z,2.50
2023-01-20T08:56:26.463Z,2.50
2023-01-20T08:58:54.244Z,2.60
2023-01-20T09:01:24.868Z,2.50
2023-01-20T09:04:04.925Z,2.50
2023-01-20T09:06:49.621Z,2.60
2023-01-20T09:09:18.644Z,2.60
2023-01-20T09:11:50.865Z,2.60
2023-01-20T09:14:24.050Z,2.60
2023-01-20T09:16:52.171Z,2.60
2023-01-20T09:19:19.504Z,2.70
2023-01-20T09:21:46.691Z,2.70
2023-01-20T09:24:14.005Z,2.70
2023-01-20T09:26:41.329Z,2.70
2023-01-20T09:29:12.491Z,2.60
2023-01-20T09:31:44.699Z,2.70
2023-01-20T09:34:19.788Z,2.70
2023-01-20T09:36:53.293Z,2.80
2023-01-20T09:39:40.163Z,2.80
2023-01-20T09:43:10.875Z,2.80
2023-01-20T09:45:48.460Z,2.90
2023-01-20T09:48:43.409Z,2.90
2023-01-20T09:51:54.976Z,2.90
2023-01-20T09:54:29.321Z,3.00
2023-01-20T09:57:00.726Z,3.00
2023-01-20T09:59:36.307Z,3.10
2023-01-20T10:02:11.744Z,3.10
2023-01-20T10:04:42.069Z,3.20
2023-01-20T10:07:33.726Z,3.20
2023-01-20T10:10:22.263Z,3.20
2023-01-20T10:13:19.663Z,3.20
2023-01-20T10:15:52.990Z,3.30
2023-01-20T10:18:51.361Z,3.30
2023-01-20T10:21:27.947Z,3.30
2023-01-20T10:23:57.750Z,3.30
2023-01-20T10:26:38.943Z,3.30
2023-01-20T10:29:11.957Z,3.40
2023-01-20T10:31:47.299Z,3.40
2023-01-20T10:37:10.014Z,3.40
2023-01-20T10:39:50.231Z,3.40
2023-01-20T10:42:19.470Z,3.50
2023-01-20T10:44:49.109Z,3.40
2023-01-20T10:47:49.414Z,3.40
2023-01-20T10:50:51.146Z,3.40
2023-01-20T10:53:59.002Z,3.40
2023-01-20T10:56:36.965Z,3.40
2023-01-20T10:59:16.789Z,3.40
2023-01-20T11:01:56.533Z,3.40
2023-01-20T11:04:36.196Z,3.40
2023-01-20T11:07:03.870Z,3.30
2023-01-20T11:09:37.687Z,3.30
2023-01-20T11:12:12.528Z,3.30
2023-01-20T11:14:39.931Z,3.30
2023-01-20T11:17:12.957Z,3.30
2023-01-20T11:19:50.708Z,3.30
2023-01-20T11:22:38.421Z,3.30
2023-01-20T11:25:06.760Z,3.30
2023-01-20T11:27:44.777Z,3.30
2023-01-20T11:30:31.293Z,3.30
2023-01-20T11:33:21.302Z,3.40
2023-01-20T11:36:05.036Z,3.50
2023-01-20T11:38:46.124Z,3.50
2023-01-20T11:41:26.910Z,3.50
2023-01-20T11:43:59.528Z,3.60
2023-01-20T11:46:32.600Z,3.60
2023-01-20T11:49:35.388Z,3.70
2023-01-20T11:52:04.825Z,3.70
2023-01-20T11:54:32.001Z,3.80
2023-01-20T11:57:10.739Z,3.90
2023-01-20T11:59:47.721Z,3.90
2023-01-20T12:02:15.116Z,3.90
2023-01-20T12:05:04.657Z,4.00
2023-01-20T12:07:52.698Z,4.10
2023-01-20T12:10:26.192Z,4.10
2023-01-20T12:13:17.289Z,4.20
2023-01-20T12:15:53.121Z,4.30
2023-01-20T12:18:37.216Z,4.30
2023-01-20T12:21:18.249Z,4.20
2023-01-20T12:23:55.908Z,4.20
2023-01-20T12:26:24.982Z,4.20
2023-01-20T12:29:18.211Z,4.20
2023-01-20T12:31:49.371Z,4.20
2023-01-20T12:34:24.310Z,4.10
2023-01-20T12:36:54.365Z,4.10
2023-01-20T12:40:14.266Z,4.10
2023-01-20T12:42:53.880Z,4.10
2023-01-20T12:45:32.994Z,4.10
2023-01-20T12:48:21.523Z,4.10
2023-01-20T12:50:48.656Z,4.10
2023-01-20T12:53:25.162Z,4.10
2023-01-20T12:56:15.366Z,4.20
2023-01-20T12:59:06.755Z,4.20
2023-01-20T13:01:44.382Z,4.30
2023-01-20T13:04:17.833Z,4.30
2023-01-20T13:07:22.586Z,4.40
2023-01-20T13:10:17.843Z,4.40
2023-01-20T13:13:05.434Z,4.50
2023-01-20T13:15:44.169Z,4.40
2023-01-20T13:18:17.298Z,4.50
2023-01-20T13:20:46.058Z,4.40
2023-01-20T13:23:35.213Z,4.50
2023-01-20T13:26:05.420Z,4.40
2023-01-20T13:28:33.111Z,4.40
2023-01-20T13:31:22.438Z,4.40
2023-01-20T13:33:49.769Z,4.40
2023-01-20T13:36:18.786Z,4.40
2023-01-20T13:38:47.912Z,4.40
2023-01-20T13:42:01.087Z,4.40
2023-01-20T13:44:38.151Z,4.40
2023-01-20T13:47:09.650Z,4.40
2023-01-20T13:49:52.181Z,4.40
2023-01-20T13:52:50.302Z,4.40
2023-01-20T13:55:37.891Z,4.30
2023-01-20T13:58:16.612Z,4.30
2023-01-20T14:00:45.065Z,4.30
2023-01-20T14:03:36.423Z,4.30
2023-01-20T14:06:07.776Z,4.30
2023-01-20T14:08:44.781Z,4.30
2023-01-20T14:11:17.778Z,4.30
2023-01-20T14:14:02.673Z,4.30
2023-01-20T14:16:34.386Z,4.40
2023-01-20T14:19:32.564Z,4.40
2023-01-20T14:22:18.088Z,4.40
2023-01-20T14:24:47.172Z,4.40
2023-01-20T14:27:17.189Z,4.40
2023-01-20T14:29:45.774Z,4.50
2023-01-20T14:32:26.129Z,4.50
2023-01-20T14:34:54.427Z,4.50
2023-01-20T14:37:36.878Z,4.50
2023-01-20T14:40:28.727Z,4.60
2023-01-20T14:42:58.460Z,4.60
2023-01-20T14:45:28.879Z,4.60
2023-01-20T14:47:58.049Z,4.60
2023-01-20T14:50:25.762Z,4.60
2023-01-20T14:52:53.286Z,4.60
2023-01-20T14:55:40.941Z,4.70
2023-01-20T14:58:16.980Z,4.60
2023-01-20T15:00:46.582Z,4.60
2023-01-20T15:03:28.448Z,4.60
2023-01-20T15:05:58.955Z,4.60
2023-01-20T15:08:33.657Z,4.60
2023-01-20T15:11:19.191Z,4.60
2023-01-20T15:13:55.193Z,4.60
2023-01-20T15:16:38.986Z,4.50
2023-01-20T15:19:22.756Z,4.50
2023-01-20T15:21:56.557Z,4.50
2023-01-20T15:24:37.536Z,4.50
2023-01-20T15:27:24.452Z,4.50
2023-01-20T15:30:21.682Z,4.50
2023-01-20T15:32:49.695Z,4.50
2023-01-20T15:35:26.053Z,4.50
2023-01-20T15:37:53.797Z,4.50
2023-01-20T15:40:25.474Z,4.50
2023-01-20T15:42:53.710Z,4.50
2023-01-20T15:45:21.113Z,4.50
2023-01-20T15:47:49.194Z,4.40
2023-01-20T15:50:22.552Z,4.40
2023-01-20T15:52:50.645Z,4.40
2023-01-20T15:55:19.347Z,4.30
2023-01-20T15:57:51.422Z,4.30
2023-01-20T16:00:22.290Z,4.30
2023-01-20T16:02:50.280Z,4.20
2023-01-20T16:05:18.038Z,4.10
2023-01-20T16:07:47.817Z,4.10
2023-01-20T16:10:19.479Z,4.00
2023-01-20T16:12:47.000Z,3.90
2023-01-20T16:15:17.207Z,3.90
2023-01-20T16:17:44.651Z,3.90
2023-01-20T16:20:29.975Z,3.80
2023-01-20T16:22:57.872Z,3.80
2023-01-20T16:25:27.852Z,3.70
2023-01-20T16:27:55.075Z,3.70
2023-01-20T16:30:23.170Z,3.70
2023-01-20T16:32:51.300Z,3.60
2023-01-20T16:35:20.421Z,3.60
2023-01-20T16:37:48.156Z,3.50
2023-01-20T16:40:19.124Z,3.50
2023-01-20T16:42:47.655Z,3.50
2023-01-20T16:45:34.773Z,3.40
2023-01-20T16:48:02.172Z,3.40
2023-01-20T16:50:30.236Z,3.40
2023-01-20T16:52:57.469Z,3.40
2023-01-20T16:55:24.704Z,3.30
2023-01-20T16:57:52.156Z,3.30
2023-01-20T17:00:20.282Z,3.20
2023-01-20T17:02:52.564Z,3.10
2023-01-20T17:05:22.725Z,3.00
2023-01-20T17:07:51.344Z,3.00
2023-01-20T17:10:19.516Z,3.00
2023-01-20T17:12:48.888Z,2.90
2023-01-20T17:15:16.492Z,2.90
2023-01-20T17:17:43.816Z,2.80
2023-01-20T17:20:11.332Z,2.90
2023-01-20T17:22:40.199Z,2.80
2023-01-20T17:25:09.696Z,2.80
2023-01-20T17:27:37.860Z,2.80
2023-01-20T17:30:07.729Z,2.80
2023-01-20T17:32:35.752Z,2.80
2023-01-20T17:35:03.602Z,2.80
2023-01-20T17:37:31.806Z,2.70
2023-01-20T17:40:00.548Z,2.70
2023-01-20T17:42:28.498Z,2.70
2023-01-20T17:45:01.478Z,2.70
2023-01-20T17:47:31.308Z,2.60
2023-01-20T17:49:58.817Z,2.60
2023-01-20T17:52:26.039Z,2.60
2023-01-20T17:54:53.153Z,2.60
2023-01-20T17:57:20.568Z,2.60
2023-01-20T17:59:47.819Z,2.60
2023-01-20T18:02:18.559Z,2.60
2023-01-20T18:04:45.973Z,2.60
2023-01-20T18:07:13.813Z,2.60
2023-01-20T18:09:42.963Z,2.60
2023-01-20T18:12:10.345Z,2.70
2023-01-20T18:14:37.620Z,2.70
2023-01-20T18:17:05.958Z,2.70
2023-01-20T18:19:33.326Z,2.70
2023-01-20T18:22:02.048Z,2.60
2023-01-20T18:24:29.504Z,2.60
2023-01-20T18:27:00.832Z,2.50
2023-01-20T18:29:30.430Z,2.50
2023-01-20T18:31:58.291Z,2.40
2023-01-20T18:34:25.649Z,2.40
2023-01-20T18:36:53.157Z,2.30
2023-01-20T18:39:22.581Z,2.30
2023-01-20T18:41:50.666Z,2.30
2023-01-20T18:44:18.785Z,2.20
2023-01-20T18:46:46.372Z,2.20
2023-01-20T18:49:15.268Z,2.10
2023-01-20T18:51:43.292Z,2.10
2023-01-20T18:54:17.642Z,2.10
2023-01-20T18:56:45.068Z,2.00
2023-01-20T18:59:12.820Z,2.00
2023-01-20T19:01:41.825Z,2.00
2023-01-20T19:04:12.135Z,1.90
2023-01-20T19:06:45.005Z,2.00
2023-01-20T19:09:13.147Z,1.90
2023-01-20T19:11:41.952Z,1.90
2023-01-20T19:14:12.800Z,1.90
2023-01-20T19:16:49.013Z,1.90
2023-01-20T19:19:17.876Z,2.00
2023-01-20T19:21:45.777Z,2.10
2023-01-20T19:24:21.167Z,2.10
2023-01-20T19:26:48.458Z,2.20
2023-01-20T19:29:17.594Z,2.30
2023-01-20T19:31:44.898Z,2.30
2023-01-20T19:34:12.972Z,2.30
2023-01-20T19:36:40.799Z,2.30
2023-01-20T19:39:09.552Z,2.30
2023-01-20T19:41:38.959Z,2.40
2023-01-20T19:44:08.672Z,2.40
2023-01-20T19:46:38.900Z,2.40
2023-01-20T19:49:06.890Z,2.40
2023-01-20T19:51:34.380Z,2.40
2023-01-20T19:54:02.741Z,2.40
2023-01-20T19:56:32.462Z,2.40
2023-01-20T19:59:00.933Z,2.40
2023-01-20T20:01:31.664Z,2.40
2023-01-20T20:04:00.162Z,2.50
2023-01-20T20:06:30.437Z,2.50
2023-01-20T20:09:02.620Z,2.50
2023-01-20T20:11:32.271Z,2.60
2023-01-20T20:14:01.680Z,2.60
2023-01-20T20:16:30.681Z,2.60
2023-01-20T20:18:58.844Z,2.60
2023-01-20T20:21:27.410Z,2.60
2023-01-20T20:23:57.651Z,2.60
2023-01-20T20:26:28.401Z,2.60
2023-01-20T20:28:56.364Z,2.60
2023-01-20T20:31:29.430Z,2.60
2023-01-20T20:33:58.859Z,2.60
2023-01-20T20:36:28.570Z,2.60
2023-01-20T20:38:57.317Z,2.60
2023-01-20T20:41:27.629Z,2.60
2023-01-20T20:43:55.616Z,2.60
2023-01-20T20:46:22.933Z,2.70
2023-01-20T20:48:52.937Z,2.70
2023-01-20T20:51:20.567Z,2.70
2023-01-20T20:53:47.833Z,2.70
2023-01-20T20:56:16.579Z,2.70
2023-01-20T20:58:59.815Z,2.70
2023-01-20T21:01:29.773Z,2.60
2023-01-20T21:03:58.299Z,2.60
2023-01-20T21:06:26.190Z,2.60
2023-01-20T21:08:53.784Z,2.60
2023-01-20T21:11:21.575Z,2.60
2023-01-20T21:13:51.572Z,2.70
2023-01-20T21:16:22.420Z,2.70
2023-01-20T21:18:50.788Z,2.70
2023-01-20T21:21:19.543Z,2.70
2023-01-20T21:23:52.251Z,2.70
2023-01-20T21:26:20.210Z,2.70
2023-01-20T21:28:49.885Z,2.80
2023-01-20T21:31:21.572Z,2.80
2023-01-20T21:33:58.519Z,2.90
2023-01-20T21:36:27.912Z,2.90
2023-01-20T21:38:55.460Z,3.00
2023-01-20T21:41:22.826Z,3.00
2023-01-20T21:44:08.919Z,3.10
2023-01-20T21:46:40.598Z,3.10
2023-01-20T21:49:27.862Z,3.20
2023-01-20T21:52:14.902Z,3.20
2023-01-20T21:54:42.544Z,3.20
2023-01-20T21:57:10.526Z,3.20
2023-01-20T21:59:37.781Z,3.30
2023-01-20T22:02:05.261Z,3.30
2023-01-20T22:04:33.222Z,3.30
2023-01-20T22:07:00.694Z,3.30
2023-01-20T22:09:29.216Z,3.30
2023-01-20T22:11:56.374Z,3.30
2023-01-20T22:14:23.619Z,3.30
2023-01-20T22:16:50.988Z,3.30
2023-01-20T22:19:18.448Z,3.30
2023-01-20T22:21:45.628Z,3.30
2023-01-20T22:24:12.832Z,3.30
2023-01-20T22:26:40.213Z,3.20
2023-01-20T22:29:07.586Z,3.20
2023-01-20T22:31:34.762Z,3.10
2023-01-20T22:34:04.739Z,3.10
2023-01-20T22:36:32.631Z,3.10
2023-01-20T22:38:59.905Z,3.10
2023-01-20T22:41:27.505Z,3.00
2023-01-20T22:43:55.950Z,3.00
2023-01-20T22:46:25.607Z,3.00
2023-01-20T22:48:53.995Z,3.00
2023-01-20T22:51:23.462Z,3.00
2023-01-20T22:53:53.974Z,2.90
2023-01-20T22:56:25.581Z,2.90
2023-01-20T22:58:53.191Z,2.90
2023-01-20T23:01:26.343Z,2.90
2023-01-20T23:03:55.531Z,2.90
2023-01-20T23:06:23.622Z,2.80
2023-01-20T23:08:51.445Z,2.80
2023-01-20T23:11:20.476Z,2.80
2023-01-20T23:13:48.025Z,2.80
2023-01-20T23:16:17.749Z,2.80
2023-01-20T23:18:46.368Z,2.70
2023-01-20T23:21:13.851Z,2.70
2023-01-20T23:23:41.071Z,2.70
2023-01-20T23:26:17.222Z,2.70
2023-01-20T23:28:45.761Z,2.60
2023-01-20T23:31:15.543Z,2.60
2023-01-20T23:33:44.235Z,2.50
2023-01-20T23:36:19.882Z,2.50
2023-01-20T23:38:48.207Z,2.40
2023-01-20T23:41:16.079Z,2.40
2023-01-20T23:43:43.814Z,2.40
2023-01-20T23:46:12.355Z,2.30
2023-01-20T23:48:39.857Z,2.30
2023-01-20T23:51:07.719Z,2.30
2023-01-20T23:53:38.452Z,2.20
2023-01-20T23:56:15.134Z,2.20
2023-01-20T23:58:43.163Z,2.20
